Time;durP1;ratioP1;P1;durP2;ratioP2;P2;SDS_P1;SDS_P2;PMS_P1;PMS_P2;Temp;Humidity;BMP_temperature;BMP_pressure;BME280_temperature;BME280_humidity;BME280_pressure;Samples;Min_cycle;Max_cycle;Signal;HPM_P1;HPM_P2
2021/05/28 05:41:09;;;;;;;1.08;0.73;;;;;;;;;;6292310;22;20008;-93
2021/05/28 05:53:12;;;;;;;0.00;0.00;;;;;;;;;;6285903;22;20022;-94
2021/05/28 05:55:48;;;;;;;0.00;0.00;;;;;;;;;;6249831;22;20011;-91
2021/05/28 05:58:42;;;;;;;;;;;;;;;;;;;;;
2021/05/28 06:10:02;;;;;;;0.00;0.00;;;;;;;;;;6267859;22;20069;-92
2021/05/28 06:12:42;;;;;;;0.17;0.17;;;;;;;;;;6266257;22;20094;-92
2021/05/28 06:15:29;;;;;;;2.60;0.45;;;;;;;;;;6216418;22;20091;-93
2021/05/28 06:18:05;;;;;;;0.00;0.00;;;;;;;;;;6265796;22;20368;-93
2021/05/28 06:21:20;;;;;;;3.75;1.42;;;;;;;;;;6242766;22;20019;-94
2021/05/28 06:23:51;;;;;;;0.20;0.20;;;;;;;;;;6265122;22;20020;-91
2021/05/28 06:26:34;;;;;;;0.88;0.65;;;;;;;;;;6216550;22;20022;-92
2021/05/28 06:29:22;;;;;;;0.77;0.60;;;;;;;;;;6241554;22;20015;-92
2021/05/28 06:32:07;;;;;;;0.00;0.00;;;;;;;;;;6265314;22;20046;-92
2021/05/28 06:34:51;;;;;;;0.00;0.00;;;;;;;;;;6218690;22;20012;-92
2021/05/28 06:37:42;;;;;;;0.32;0.32;;;;;;;;;;6258140;22;20004;-92
2021/05/28 06:40:38;;;;;;;0.03;0.03;;;;;;;;;;6211274;23;20004;-92
2021/05/28 06:43:27;;;;;;;0.00;0.00;;;;;;;;;;6208861;23;20031;-91
2021/05/28 06:46:04;;;;;;;;;;;;;;;;;;;;;
2021/05/28 06:48:37;;;;;;;0.00;0.00;;;;;;;;;;6238262;23;20083;-91
2021/05/28 06:51:45;;;;;;;0.55;0.47;;;;;;;;;;6208310;23;20074;-91
2021/05/28 06:54:13;;;;;;;0.00;0.00;;;;;;;;;;6231783;23;20087;-91
2021/05/28 06:56:56;;;;;;;0.70;0.38;;;;;;;;;;6210254;23;20047;-91
2021/05/28 06:59:34;;;;;;;0.50;0.50;;;;;;;;;;6207721;23;20070;-91
2021/05/28 07:05:03;;;;;;;0.10;0.10;;;;;;;;;;6237622;23;19938;-92
2021/05/28 07:07:29;;;;;;;0.10;0.10;;;;;;;;;;6211334;23;20082;-92
2021/05/28 07:10:12;;;;;;;0.00;0.00;;;;;;;;;;6209625;23;20008;-90
2021/05/28 07:15:31;;;;;;;0.00;0.00;;;;;;;;;;6269923;22;20027;-90
2021/05/28 07:18:12;;;;;;;0.08;0.08;;;;;;;;;;6240658;22;20008;-90
2021/05/28 07:24:06;;;;;;;0.00;0.00;;;;;;;;;;6270276;22;20085;-90
2021/05/28 07:26:33;;;;;;;0.00;0.00;;;;;;;;;;6269441;22;20072;-90
2021/05/28 07:29:14;;;;;;;0.38;0.32;;;;;;;;;;6269594;22;20909;-90
2021/05/28 07:31:56;;;;;;;0.20;0.20;;;;;;;;;;6264336;22;20126;-91
2021/05/28 07:34:38;;;;;;;0.00;0.00;;;;;;;;;;6261854;22;20008;-91
2021/05/28 07:40:08;;;;;;;0.00;0.00;;;;;;;;;;6114667;23;20424;-91
2021/05/28 07:42:38;;;;;;;0.10;0.10;;;;;;;;;;6187494;23;20070;-91
2021/05/28 07:45:20;;;;;;;0.03;0.00;;;;;;;;;;6214365;23;20093;-91
2021/05/28 07:47:57;;;;;;;0.20;0.10;;;;;;;;;;6210920;23;20016;-91
2021/05/28 07:50:26;;;;;;;0.30;0.13;;;;;;;;;;6212108;23;20082;-91
2021/05/28 07:52:54;;;;;;;0.60;0.35;;;;;;;;;;6214273;23;20057;-91
2021/05/28 07:55:23;;;;;;;0.73;0.50;;;;;;;;;;6213525;23;20023;-90
2021/05/28 07:57:51;;;;;;;0.20;0.10;;;;;;;;;;6214633;23;20012;-90
2021/05/28 08:00:25;;;;;;;0.30;0.20;;;;;;;;;;6213664;23;20008;-91
2021/05/28 08:03:13;;;;;;;0.25;0.10;;;;;;;;;;6212112;23;20004;-91
2021/05/28 08:06:07;;;;;;;0.70;0.17;;;;;;;;;;6241282;23;20022;-91
2021/05/28 08:08:37;;;;;;;0.10;0.10;;;;;;;;;;6191405;23;20011;-91
2021/05/28 08:11:13;;;;;;;1.08;0.05;;;;;;;;;;6212636;23;20004;-91
2021/05/28 08:13:40;;;;;;;0.85;0.47;;;;;;;;;;6214720;23;20476;-91
2021/05/28 08:16:46;;;;;;;0.55;0.20;;;;;;;;;;6214871;23;20008;-91
2021/05/28 08:19:13;;;;;;;0.85;0.40;;;;;;;;;;6214154;23;20004;-91
2021/05/28 08:21:42;;;;;;;0.00;0.00;;;;;;;;;;6212688;23;20023;-92
2021/05/28 08:24:14;;;;;;;0.30;0.15;;;;;;;;;;6216639;23;20015;-92
2021/05/28 08:27:03;;;;;;;0.00;0.00;;;;;;;;;;6216281;23;20015;-92
2021/05/28 08:29:38;;;;;;;0.22;0.22;;;;;;;;;;6191975;23;20024;-91
2021/05/28 08:32:08;;;;;;;0.00;0.00;;;;;;;;;;6212510;23;20004;-91
2021/05/28 08:34:59;;;;;;;0.57;0.32;;;;;;;;;;6208871;23;20057;-92
2021/05/28 08:37:45;;;;;;;0.00;0.00;;;;;;;;;;6202445;23;20019;-91
2021/05/28 08:40:35;;;;;;;;;;;;;;;;;;;;;
2021/05/28 08:46:06;;;;;;;;;;;;;;;;;;;;;
2021/05/28 08:48:43;;;;;;;0.03;0.03;;;;;;;;;;6218787;23;20087;-92
2021/05/28 08:51:16;;;;;;;0.00;0.00;;;;;;;;;;6214469;23;20023;-92
2021/05/28 08:53:59;;;;;;;;;;;;;;;;;;;;;
2021/05/28 08:56:28;;;;;;;1.80;0.93;;;;;;;;;;6218428;23;20405;-92
2021/05/28 08:59:13;;;;;;;1.95;1.20;;;;;;;;;;6192853;23;20311;-92
2021/05/28 09:02:04;;;;;;;;;;;;;;;;;;;;;
2021/05/28 09:08:15;;;;;;;0.57;0.57;;;;;;;;;;6148806;23;20072;-91
2021/05/28 09:11:06;;;;;;;0.30;0.28;;;;;;;;;;6160103;23;20017;-92
2021/05/28 09:13:49;;;;;;;1.92;0.90;;;;;;;;;;6156062;23;20021;-91
2021/05/28 09:16:53;;;;;;;0.03;0.03;;;;;;;;;;6133947;23;20017;-91
2021/05/28 09:22:35;;;;;;;0.00;0.00;;;;;;;;;;6159767;23;20009;-92
2021/05/28 09:25:28;;;;;;;0.10;0.10;;;;;;;;;;6155994;23;20005;-93
2021/05/28 09:28:27;;;;;;;0.10;0.10;;;;;;;;;;6145605;23;20067;-92
2021/05/28 09:31:23;;;;;;;0.38;0.10;;;;;;;;;;6227268;23;20020;-92
2021/05/28 09:34:21;;;;;;;0.17;0.03;;;;;;;;;;6225749;23;20011;-93
2021/05/28 09:37:17;;;;;;;0.00;0.00;;;;;;;;;;6111954;23;20024;-94
2021/05/28 09:56:52;;;;;;;0.43;0.43;;;;;;;;;;6054142;23;20026;-93
2021/05/28 10:23:06;;;;;;;0.00;0.00;;;;;;;;;;6129640;23;20009;-91
2021/05/28 10:29:19;;;;;;;0.65;0.50;;;;;;;;;;6049248;23;20055;-94
2021/05/28 10:32:02;;;;;;;0.00;0.00;;;;;;;;;;6016972;23;20011;-92
2021/05/28 10:38:20;;;;;;;0.30;0.20;;;;;;;;;;6058457;23;20017;-93
2021/05/28 10:44:19;;;;;;;;;;;;;;;;;;;;;
2021/05/28 10:47:40;;;;;;;;;;;;;;;;;;;;;
2021/05/28 10:50:30;;;;;;;0.08;0.08;;;;;;;;;;6064106;23;20090;-94
2021/05/28 10:53:19;;;;;;;;;;;;;;;;;;;;;
2021/05/28 10:56:24;;;;;;;;;;;;;;;;;;;;;
2021/05/28 10:59:17;;;;;;;0.00;0.00;;;;;;;;;;6210519;23;20104;-91
2021/05/28 11:02:09;;;;;;;0.10;0.08;;;;;;;;;;6208499;23;20016;-92
2021/05/28 11:04:46;;;;;;;0.20;0.20;;;;;;;;;;6211326;23;20008;-92
2021/05/28 11:07:22;;;;;;;0.00;0.00;;;;;;;;;;6210109;23;20009;-93
2021/05/28 11:09:57;;;;;;;0.05;0.00;;;;;;;;;;6209002;23;20031;-94
2021/05/28 11:12:43;;;;;;;0.00;0.00;;;;;;;;;;6213330;23;20004;-94
2021/05/28 11:15:36;;;;;;;0.30;0.25;;;;;;;;;;6220349;23;20020;-94
2021/05/28 11:18:42;;;;;;;;;;;;;;;;;;;;;
2021/05/28 11:25:04;;;;;;;;;;;;;;;;;;;;;
2021/05/28 11:37:41;;;;;;;0.03;0.03;;;;;;;;;;6264957;22;20043;-93
2021/05/28 11:43:26;;;;;;;0.00;0.00;;;;;;;;;;6263406;23;20027;-93
2021/05/28 11:49:39;;;;;;;;;;;;;;;;;;;;;
2021/05/28 11:52:34;;;;;;;0.43;0.38;;;;;;;;;;6266348;23;19988;-93
2021/05/28 11:55:17;;;;;;;0.00;0.00;;;;;;;;;;6266058;23;20053;-93
2021/05/28 11:58:00;;;;;;;0.05;0.00;;;;;;;;;;6243034;23;20036;-93
2021/05/28 12:11:07;;;;;;;;;;;;;;;;;;;;;
2021/05/28 12:17:07;;;;;;;;;;;;;;;;;;;;;
2021/05/28 12:23:29;;;;;;;0.10;0.10;;;;;;;;;;6112904;23;20010;-94
2021/05/28 12:29:20;;;;;;;0.00;0.00;;;;;;;;;;6132072;23;20053;-95
2021/05/28 12:32:26;;;;;;;0.00;0.00;;;;;;;;;;6085739;23;20009;-94
2021/05/28 12:38:17;;;;;;;0.05;0.05;;;;;;;;;;6107586;22;20042;-94
2021/05/28 12:41:04;;;;;;;0.00;0.00;;;;;;;;;;6252613;22;20023;-96
2021/05/28 12:43:42;;;;;;;0.13;0.13;;;;;;;;;;6246096;23;20012;-94
2021/05/28 12:49:55;;;;;;;;;;;;;;;;;;;;;
2021/05/28 12:52:42;;;;;;;0.00;0.00;;;;;;;;;;6142575;23;20010;-95
2021/05/28 12:55:26;;;;;;;0.38;0.13;;;;;;;;;;6113530;23;20006;-93
2021/05/28 13:01:14;;;;;;;0.00;0.00;;;;;;;;;;6128657;23;20096;-94
2021/05/28 13:04:13;;;;;;;;;;;;;;;;;;;;;
2021/05/28 13:06:51;;;;;;;0.00;0.00;;;;;;;;;;6253152;23;20008;-94
2021/05/28 13:16:23;;;;;;;0.00;0.00;;;;;;;;;;6297727;22;20019;-94
2021/05/28 13:28:33;;;;;;;0.20;0.20;;;;;;;;;;6139758;23;19919;-95
2021/05/28 13:31:25;;;;;;;0.00;0.00;;;;;;;;;;6261305;22;20503;-96
2021/05/28 13:37:39;;;;;;;0.35;0.03;;;;;;;;;;6297521;22;20050;-95
2021/05/28 13:40:30;;;;;;;0.10;0.03;;;;;;;;;;6237497;22;20016;-94
2021/05/28 13:46:17;;;;;;;0.00;0.00;;;;;;;;;;6197533;23;20327;-92
2021/05/28 13:49:04;;;;;;;0.43;0.10;;;;;;;;;;6258533;22;20012;-93
2021/05/28 13:52:10;;;;;;;;;;;;;;;;;;;;;
2021/05/28 14:01:45;;;;;;;0.00;0.00;;;;;;;;;;6204990;22;20337;-94
2021/05/28 14:11:05;;;;;;;0.00;0.00;;;;;;;;;;6189569;22;20055;-94
2021/05/28 14:20:23;;;;;;;0.00;0.00;;;;;;;;;;6254724;22;20008;-95
2021/05/28 14:23:19;;;;;;;0.28;0.28;;;;;;;;;;6263236;22;20014;-94
2021/05/28 14:32:26;;;;;;;0.10;0.10;;;;;;;;;;6255830;22;20015;-93
2021/05/28 14:38:28;;;;;;;0.08;0.08;;;;;;;;;;6225173;22;20008;-95
2021/05/28 14:41:09;;;;;;;0.20;0.17;;;;;;;;;;6237124;23;20094;-94
2021/05/28 14:43:44;;;;;;;0.10;0.00;;;;;;;;;;6260829;23;20028;-94
2021/05/28 14:46:32;;;;;;;0.00;0.00;;;;;;;;;;6260235;23;20061;-94
2021/05/28 14:49:05;;;;;;;0.00;0.00;;;;;;;;;;6239960;23;20064;-93
2021/05/28 14:51:35;;;;;;;0.17;0.10;;;;;;;;;;6293426;22;20016;-95
2021/05/28 14:54:08;;;;;;;0.00;0.00;;;;;;;;;;6235823;23;20688;-94
2021/05/28 14:56:59;;;;;;;0.00;0.00;;;;;;;;;;6286262;22;20001;-95
2021/05/28 14:59:31;;;;;;;0.05;0.00;;;;;;;;;;6229870;23;20012;-96
2021/05/28 15:02:07;;;;;;;0.20;0.20;;;;;;;;;;6285284;22;19992;-96
2021/05/28 15:04:52;;;;;;;0.00;0.00;;;;;;;;;;6266227;23;20039;-95
2021/05/28 15:10:48;;;;;;;0.63;0.45;;;;;;;;;;6262332;23;20051;-96
2021/05/28 15:20:01;;;;;;;0.05;0.00;;;;;;;;;;6046641;23;20029;-94
2021/05/28 15:22:52;;;;;;;0.00;0.00;;;;;;;;;;6047248;23;20019;-95
2021/05/28 15:25:21;;;;;;;0.00;0.00;;;;;;;;;;6182892;23;20009;-95
2021/05/28 15:27:53;;;;;;;0.10;0.10;;;;;;;;;;6155682;23;20009;-95
2021/05/28 15:59:57;;;;;;;0.00;0.00;;;;;;;;;;6268512;22;20032;-94
2021/05/28 16:18:35;;;;;;;0.00;0.00;;;;;;;;;;6150776;23;20014;-93
2021/05/28 16:21:11;;;;;;;0.13;0.13;;;;;;;;;;6161534;23;20367;-95
2021/05/28 16:23:42;;;;;;;0.30;0.30;;;;;;;;;;6088964;23;20014;-93
2021/05/28 16:26:21;;;;;;;1.65;0.30;;;;;;;;;;6038515;23;20010;-93
2021/05/28 16:29:15;;;;;;;0.00;0.00;;;;;;;;;;6071260;23;20006;-94
2021/05/28 16:35:15;;;;;;;1.95;0.95;;;;;;;;;;6087841;23;20069;-93
2021/05/28 16:52:22;;;;;;;0.28;0.22;;;;;;;;;;6145424;23;20017;-90
2021/05/28 16:58:15;;;;;;;0.00;0.00;;;;;;;;;;6271257;22;20071;-94
2021/05/28 17:00:41;;;;;;;0.10;0.10;;;;;;;;;;6249804;22;20102;-94
2021/05/28 17:03:08;;;;;;;0.10;0.10;;;;;;;;;;6251868;22;20436;-91
2021/05/28 17:05:34;;;;;;;0.00;0.00;;;;;;;;;;6271757;22;20502;-92
2021/05/28 17:08:01;;;;;;;0.00;0.00;;;;;;;;;;6270014;22;20016;-92
2021/05/28 17:10:32;;;;;;;0.00;0.00;;;;;;;;;;6269176;22;20015;-96
2021/05/28 17:13:04;;;;;;;0.90;0.80;;;;;;;;;;6268291;22;20016;-96
2021/05/28 17:15:31;;;;;;;0.28;0.28;;;;;;;;;;6274782;22;20015;-94
2021/05/28 17:18:00;;;;;;;0.08;0.08;;;;;;;;;;6269224;22;20008;-93
2021/05/28 17:20:27;;;;;;;0.00;0.00;;;;;;;;;;6245487;22;20475;-92
2021/05/28 17:23:03;;;;;;;0.00;0.00;;;;;;;;;;6245217;22;20095;-94
2021/05/28 17:25:29;;;;;;;0.05;0.05;;;;;;;;;;6274722;22;20042;-94
2021/05/28 17:27:56;;;;;;;0.00;0.00;;;;;;;;;;6272320;22;20123;-94
2021/05/28 17:30:24;;;;;;;0.10;0.10;;;;;;;;;;6271865;22;20844;-93
2021/05/28 17:32:54;;;;;;;0.22;0.22;;;;;;;;;;6269671;22;20019;-95
2021/05/28 17:35:24;;;;;;;0.00;0.00;;;;;;;;;;6273770;22;20086;-92
2021/05/28 17:37:54;;;;;;;0.00;0.00;;;;;;;;;;6255775;22;20043;-95
2021/05/28 17:40:23;;;;;;;0.00;0.00;;;;;;;;;;6215533;23;20012;-95
2021/05/28 17:42:56;;;;;;;0.10;0.10;;;;;;;;;;6215346;23;20441;-94
2021/05/28 17:45:22;;;;;;;0.00;0.00;;;;;;;;;;6215866;23;20023;-95
2021/05/28 17:47:50;;;;;;;0.00;0.00;;;;;;;;;;6214163;23;20094;-95
2021/05/28 17:50:16;;;;;;;;;;;;;;;;;;6214112;23;20043;-96
2021/05/28 17:52:42;;;;;;;0.20;0.20;;;;;;;;;;6216996;23;19907;-93
2021/05/28 17:55:11;;;;;;;0.75;0.68;;;;;;;;;;6215750;23;20087;-94
2021/05/28 17:57:37;;;;;;;0.00;0.00;;;;;;;;;;6211557;23;20016;-93
2021/05/28 18:00:08;;;;;;;3.13;0.77;;;;;;;;;;6213964;23;20018;-92
2021/05/28 18:02:37;;;;;;;0.60;0.40;;;;;;;;;;6191888;23;20020;-92
2021/05/28 18:05:07;;;;;;;0.10;0.10;;;;;;;;;;6214996;23;20084;-92
2021/05/28 18:07:36;;;;;;;0.00;0.00;;;;;;;;;;6217493;23;20503;-92
2021/05/28 18:10:06;;;;;;;0.00;0.00;;;;;;;;;;6214420;23;20008;-92
2021/05/28 18:12:32;;;;;;;0.40;0.20;;;;;;;;;;6215221;23;20011;-92
2021/05/28 18:14:59;;;;;;;0.67;0.67;;;;;;;;;;6216064;23;20012;-92
2021/05/28 18:17:29;;;;;;;0.03;0.03;;;;;;;;;;6216516;23;20070;-92
2021/05/28 18:19:56;;;;;;;0.25;0.25;;;;;;;;;;6214756;23;20008;-92
2021/05/28 18:22:22;;;;;;;0.00;0.00;;;;;;;;;;6214893;23;20012;-92
2021/05/28 18:24:48;;;;;;;0.03;0.03;;;;;;;;;;6214797;23;20297;-92
2021/05/28 18:27:15;;;;;;;0.10;0.10;;;;;;;;;;6216033;23;20322;-92
2021/05/28 18:29:41;;;;;;;0.10;0.10;;;;;;;;;;6216410;23;20717;-92
2021/05/28 18:32:08;;;;;;;0.37;0.13;;;;;;;;;;6213413;23;20008;-92
2021/05/28 18:34:35;;;;;;;0.10;0.10;;;;;;;;;;6214823;23;20239;-92
2021/05/28 18:37:01;;;;;;;0.38;0.38;;;;;;;;;;6191686;22;20016;-92
2021/05/28 18:39:27;;;;;;;0.60;0.60;;;;;;;;;;6215131;23;20091;-92
2021/05/28 18:41:54;;;;;;;0.08;0.08;;;;;;;;;;6210430;23;20243;-92
2021/05/28 18:44:20;;;;;;;0.40;0.40;;;;;;;;;;6190336;23;20012;-92
2021/05/28 18:46:49;;;;;;;0.57;0.57;;;;;;;;;;6214188;23;20016;-93
2021/05/28 18:49:16;;;;;;;0.00;0.00;;;;;;;;;;6211526;23;20263;-93
2021/05/28 18:51:43;;;;;;;0.10;0.10;;;;;;;;;;6216132;23;20019;-92
2021/05/28 18:54:13;;;;;;;0.00;0.00;;;;;;;;;;6216726;23;20015;-92
2021/05/28 18:56:42;;;;;;;0.08;0.08;;;;;;;;;;6217062;23;20135;-91
2021/05/28 18:59:10;;;;;;;0.20;0.10;;;;;;;;;;6217142;23;20012;-92
2021/05/28 19:01:39;;;;;;;0.45;0.40;;;;;;;;;;6215499;23;20012;-92
2021/05/28 19:04:06;;;;;;;0.05;0.05;;;;;;;;;;6213417;23;20008;-93
2021/05/28 19:06:33;;;;;;;0.00;0.00;;;;;;;;;;6214898;23;20321;-93
2021/05/28 19:09:01;;;;;;;0.28;0.22;;;;;;;;;;6217617;23;20012;-91
2021/05/28 19:11:31;;;;;;;0.00;0.00;;;;;;;;;;6218294;23;20095;-93
2021/05/28 19:14:01;;;;;;;0.00;0.00;;;;;;;;;;6214715;23;20074;-93
2021/05/28 19:16:29;;;;;;;0.00;0.00;;;;;;;;;;6217519;23;20008;-92
2021/05/28 19:18:56;;;;;;;0.08;0.08;;;;;;;;;;6215745;23;20009;-93
2021/05/28 19:21:22;;;;;;;0.10;0.10;;;;;;;;;;6217414;23;20016;-92
2021/05/28 19:23:54;;;;;;;1.10;0.33;;;;;;;;;;6213693;23;20004;-92
2021/05/28 19:26:23;;;;;;;0.10;0.10;;;;;;;;;;6216761;23;20422;-93
2021/05/28 19:28:49;;;;;;;0.10;0.10;;;;;;;;;;6211783;23;20027;-92
2021/05/28 19:31:16;;;;;;;0.00;0.00;;;;;;;;;;6215148;23;20015;-93
2021/05/28 19:33:43;;;;;;;0.08;0.08;;;;;;;;;;6217145;23;20004;-92
2021/05/28 19:36:10;;;;;;;0.97;0.20;;;;;;;;;;6243675;23;20007;-92
2021/05/28 19:38:36;;;;;;;0.00;0.00;;;;;;;;;;6217455;23;20318;-92
2021/05/28 19:41:03;;;;;;;0.00;0.00;;;;;;;;;;6213458;23;20012;-91
2021/05/28 19:43:30;;;;;;;0.00;0.00;;;;;;;;;;6212913;23;20346;-92
2021/05/28 19:45:56;;;;;;;0.00;0.00;;;;;;;;;;6214479;23;20478;-92
2021/05/28 19:48:22;;;;;;;0.00;0.00;;;;;;;;;;6189528;23;20051;-92
2021/05/28 19:50:50;;;;;;;0.90;0.55;;;;;;;;;;6217332;23;20008;-92
2021/05/28 19:56:05;;;;;;;0.00;0.00;;;;;;;;;;6243554;23;20318;-92
2021/05/28 19:58:32;;;;;;;0.25;0.25;;;;;;;;;;6217083;23;20373;-92
2021/05/28 20:00:59;;;;;;;0.05;0.05;;;;;;;;;;6214242;23;20012;-93
2021/05/28 20:03:28;;;;;;;0.10;0.10;;;;;;;;;;6216783;23;20008;-93
2021/05/28 20:06:19;;;;;;;0.10;0.10;;;;;;;;;;6214589;23;20341;-93
2021/05/28 20:08:49;;;;;;;0.10;0.10;;;;;;;;;;6198948;23;20012;-93
2021/05/28 20:11:40;;;;;;;0.00;0.00;;;;;;;;;;6213098;23;20012;-92
2021/05/28 20:14:26;;;;;;;0.15;0.13;;;;;;;;;;6213205;23;20004;-93
2021/05/28 20:16:55;;;;;;;0.00;0.00;;;;;;;;;;6213749;23;20022;-93
2021/05/28 20:19:23;;;;;;;0.00;0.00;;;;;;;;;;6216388;23;20012;-93
2021/05/28 20:21:51;;;;;;;0.00;0.00;;;;;;;;;;6212447;23;20016;-93
2021/05/28 20:24:18;;;;;;;0.10;0.10;;;;;;;;;;6216764;23;20008;-93
2021/05/28 20:26:45;;;;;;;0.37;0.23;;;;;;;;;;6213652;23;20090;-93
2021/05/28 20:29:12;;;;;;;0.00;0.00;;;;;;;;;;6215620;23;20246;-92
2021/05/28 20:31:39;;;;;;;0.00;0.00;;;;;;;;;;6216004;23;20035;-93
2021/05/28 20:34:07;;;;;;;0.10;0.10;;;;;;;;;;6215415;23;20031;-92
2021/05/28 20:36:38;;;;;;;0.00;0.00;;;;;;;;;;6214109;23;20047;-92
2021/05/28 20:39:07;;;;;;;0.00;0.00;;;;;;;;;;6212153;23;20007;-92
2021/05/28 20:41:37;;;;;;;0.13;0.10;;;;;;;;;;6214042;23;20020;-92
2021/05/28 20:44:03;;;;;;;0.10;0.10;;;;;;;;;;6212292;23;20095;-93
2021/05/28 20:46:33;;;;;;;0.00;0.00;;;;;;;;;;6215528;23;20032;-91
2021/05/28 20:48:59;;;;;;;0.30;0.30;;;;;;;;;;6216825;23;20528;-92
2021/05/28 20:51:26;;;;;;;0.00;0.00;;;;;;;;;;6215511;23;20008;-92
2021/05/28 20:53:56;;;;;;;0.00;0.00;;;;;;;;;;6214319;23;20008;-91
2021/05/28 20:58:57;;;;;;;0.65;0.20;;;;;;;;;;6252207;23;20016;-92
2021/05/28 21:01:24;;;;;;;0.52;0.32;;;;;;;;;;6216866;23;20091;-92
2021/05/28 21:04:04;;;;;;;0.00;0.00;;;;;;;;;;6190767;23;20540;-92
2021/05/28 21:06:30;;;;;;;0.00;0.00;;;;;;;;;;6214681;23;20012;-91
2021/05/28 21:09:00;;;;;;;0.00;0.00;;;;;;;;;;6214137;23;20012;-92
2021/05/28 21:11:30;;;;;;;0.00;0.00;;;;;;;;;;6216304;23;20011;-91
2021/05/28 21:13:56;;;;;;;0.00;0.00;;;;;;;;;;6215069;23;20005;-92
2021/05/28 21:16:22;;;;;;;0.03;0.03;;;;;;;;;;6217185;23;20008;-92
2021/05/28 21:18:48;;;;;;;0.00;0.00;;;;;;;;;;6215085;23;20008;-91
2021/05/28 21:21:15;;;;;;;0.00;0.00;;;;;;;;;;6216333;23;20008;-90
2021/05/28 21:23:43;;;;;;;0.60;0.60;;;;;;;;;;6215463;23;20066;-90
2021/05/28 21:26:10;;;;;;;0.00;0.00;;;;;;;;;;6216284;23;20004;-90
2021/05/28 21:28:36;;;;;;;0.00;0.00;;;;;;;;;;6214102;23;20012;-90
2021/05/28 21:31:05;;;;;;;1.33;0.77;;;;;;;;;;6214627;23;20251;-89
2021/05/28 21:33:35;;;;;;;0.00;0.00;;;;;;;;;;6216651;23;20008;-90
2021/05/28 21:36:04;;;;;;;0.00;0.00;;;;;;;;;;6190031;23;20043;-90
2021/05/28 21:38:32;;;;;;;0.30;0.20;;;;;;;;;;6191938;23;20039;-88
2021/05/28 21:40:59;;;;;;;;;;;;;;;;;;6216198;23;20008;-89
2021/05/28 21:43:26;;;;;;;1.35;0.75;;;;;;;;;;6214839;23;19907;-90
2021/05/28 21:45:54;;;;;;;0.20;0.20;;;;;;;;;;6217054;23;20016;-90
2021/05/28 21:48:21;;;;;;;0.00;0.00;;;;;;;;;;6219932;23;20016;-92
2021/05/28 21:50:57;;;;;;;0.20;0.20;;;;;;;;;;6219296;23;20008;-89
2021/05/28 21:53:24;;;;;;;0.03;0.03;;;;;;;;;;6223325;23;20492;-89
2021/05/28 21:55:51;;;;;;;0.10;0.10;;;;;;;;;;6220039;23;20062;-89
2021/05/28 21:58:18;;;;;;;0.20;0.20;;;;;;;;;;6221538;23;20050;-89
2021/05/28 22:00:44;;;;;;;0.00;0.00;;;;;;;;;;6227520;23;20238;-89
2021/05/28 22:03:10;;;;;;;0.03;0.03;;;;;;;;;;6226711;23;20016;-89
2021/05/28 22:05:37;;;;;;;0.05;0.05;;;;;;;;;;6231492;23;20047;-89
2021/05/28 22:08:04;;;;;;;0.00;0.00;;;;;;;;;;6236487;23;20008;-90
2021/05/28 22:10:31;;;;;;;0.47;0.38;;;;;;;;;;6240353;23;19998;-89
2021/05/28 22:12:57;;;;;;;0.03;0.03;;;;;;;;;;6236343;23;20072;-89
2021/05/28 22:15:23;;;;;;;0.00;0.00;;;;;;;;;;6236494;23;20072;-88
2021/05/28 22:17:52;;;;;;;0.10;0.10;;;;;;;;;;6260966;23;20517;-90
2021/05/28 22:20:23;;;;;;;;;;;;;;;;;;6240628;23;20015;-91
2021/05/28 22:22:53;;;;;;;0.43;0.40;;;;;;;;;;6266405;23;19903;-89
2021/05/28 22:25:24;;;;;;;0.63;0.63;;;;;;;;;;6243257;23;20015;-89
2021/05/28 22:34:02;;;;;;;0.65;0.55;;;;;;;;;;6297353;22;20032;-89
2021/05/28 23:01:22;;;;;;;0.00;0.00;;;;;;;;;;6298604;22;20064;-89
2021/05/28 23:25:05;;;;;;;0.25;0.25;;;;;;;;;;6254549;22;20020;-87
2021/05/28 23:27:32;;;;;;;0.00;0.00;;;;;;;;;;6203568;23;20012;-87
2021/05/28 23:29:58;;;;;;;0.00;0.00;;;;;;;;;;6256201;23;20035;-86
2021/05/28 23:35:14;;;;;;;0.10;0.10;;;;;;;;;;6263181;23;20234;-86
2021/05/28 23:37:54;;;;;;;0.38;0.13;;;;;;;;;;6262647;22;20046;-87
